sensor_id;sensor_type;location;lat;lon;timestamp;P1;durP1;ratioP1;P2;durP2;ratioP2
79130;SDS011;72396;45.194;9.142;2024-01-06T00:01:36;5.30;;;3.28;;
79130;SDS011;72396;45.194;9.142;2024-01-06T00:04:01;5.65;;;3.70;;
79130;SDS011;72396;45.194;9.142;2024-01-06T00:06:26;6.07;;;3.42;;
79130;SDS011;72396;45.194;9.142;2024-01-06T00:08:52;5.35;;;3.42;;
79130;SDS011;72396;45.194;9.142;2024-01-06T00:11:19;7.25;;;3.58;;
79130;SDS011;72396;45.194;9.142;2024-01-06T00:13:45;6.43;;;3.67;;
79130;SDS011;72396;45.194;9.142;2024-01-06T00:16:11;5.72;;;3.38;;
79130;SDS011;72396;45.194;9.142;2024-01-06T00:18:36;6.10;;;3.53;;
79130;SDS011;72396;45.194;9.142;2024-01-06T00:21:01;5.03;;;3.28;;
79130;SDS011;72396;45.194;9.142;2024-01-06T00:23:27;6.80;;;3.95;;
79130;SDS011;72396;45.194;9.142;2024-01-06T00:25:52;5.57;;;3.55;;
79130;SDS011;72396;45.194;9.142;2024-01-06T00:28:17;5.32;;;3.55;;
79130;SDS011;72396;45.194;9.142;2024-01-06T00:30:43;6.13;;;3.38;;
79130;SDS011;72396;45.194;9.142;2024-01-06T00:33:08;6.63;;;3.67;;
79130;SDS011;72396;45.194;9.142;2024-01-06T00:35:33;5.57;;;3.58;;
79130;SDS011;72396;45.194;9.142;2024-01-06T00:37:59;4.82;;;3.28;;
79130;SDS011;72396;45.194;9.142;2024-01-06T00:40:25;5.38;;;3.45;;
79130;SDS011;72396;45.194;9.142;2024-01-06T00:42:51;5.72;;;3.45;;
79130;SDS011;72396;45.194;9.142;2024-01-06T00:45:16;5.57;;;3.33;;
79130;SDS011;72396;45.194;9.142;2024-01-06T00:47:42;5.68;;;3.72;;
79130;SDS011;72396;45.194;9.142;2024-01-06T00:50:07;6.40;;;3.33;;
79130;SDS011;72396;45.194;9.142;2024-01-06T00:52:33;5.38;;;3.72;;
79130;SDS011;72396;45.194;9.142;2024-01-06T00:54:58;4.57;;;3.42;;
79130;SDS011;72396;45.194;9.142;2024-01-06T00:57:23;4.03;;;3.13;;
79130;SDS011;72396;45.194;9.142;2024-01-06T00:59:49;4.95;;;3.42;;
79130;SDS011;72396;45.194;9.142;2024-01-06T01:02:15;4.80;;;3.15;;
79130;SDS011;72396;45.194;9.142;2024-01-06T01:04:41;6.00;;;3.80;;
79130;SDS011;72396;45.194;9.142;2024-01-06T01:07:06;5.30;;;3.60;;
79130;SDS011;72396;45.194;9.142;2024-01-06T01:09:31;5.45;;;3.55;;
79130;SDS011;72396;45.194;9.142;2024-01-06T01:11:57;5.93;;;3.60;;
79130;SDS011;72396;45.194;9.142;2024-01-06T01:14:22;6.00;;;3.83;;
79130;SDS011;72396;45.194;9.142;2024-01-06T01:16:47;5.15;;;3.75;;
79130;SDS011;72396;45.194;9.142;2024-01-06T01:19:13;5.38;;;3.80;;
79130;SDS011;72396;45.194;9.142;2024-01-06T01:21:39;6.57;;;3.90;;
79130;SDS011;72396;45.194;9.142;2024-01-06T01:24:05;6.65;;;3.90;;
79130;SDS011;72396;45.194;9.142;2024-01-06T01:26:30;5.93;;;4.00;;
79130;SDS011;72396;45.194;9.142;2024-01-06T01:28:55;6.38;;;3.65;;
79130;SDS011;72396;45.194;9.142;2024-01-06T01:31:21;5.50;;;4.18;;
79130;SDS011;72396;45.194;9.142;2024-01-06T01:33:46;6.10;;;4.38;;
79130;SDS011;72396;45.194;9.142;2024-01-06T01:36:12;5.85;;;4.05;;
79130;SDS011;72396;45.194;9.142;2024-01-06T01:38:37;5.95;;;3.80;;
79130;SDS011;72396;45.194;9.142;2024-01-06T01:41:03;6.05;;;3.67;;
79130;SDS011;72396;45.194;9.142;2024-01-06T01:43:28;7.25;;;4.30;;
79130;SDS011;72396;45.194;9.142;2024-01-06T01:45:54;6.25;;;4.03;;
79130;SDS011;72396;45.194;9.142;2024-01-06T01:48:20;7.75;;;4.18;;
79130;SDS011;72396;45.194;9.142;2024-01-06T01:50:48;6.78;;;4.10;;
79130;SDS011;72396;45.194;9.142;2024-01-06T01:53:14;7.10;;;4.40;;
79130;SDS011;72396;45.194;9.142;2024-01-06T01:55:42;7.13;;;4.53;;
79130;SDS011;72396;45.194;9.142;2024-01-06T01:58:09;6.05;;;4.20;;
79130;SDS011;72396;45.194;9.142;2024-01-06T02:00:37;7.13;;;5.00;;
79130;SDS011;72396;45.194;9.142;2024-01-06T02:03:03;7.45;;;4.65;;
79130;SDS011;72396;45.194;9.142;2024-01-06T02:05:30;7.00;;;4.38;;
79130;SDS011;72396;45.194;9.142;2024-01-06T02:07:55;6.22;;;4.55;;
79130;SDS011;72396;45.194;9.142;2024-01-06T02:10:21;7.05;;;4.70;;
79130;SDS011;72396;45.194;9.142;2024-01-06T02:12:47;7.35;;;4.55;;
79130;SDS011;72396;45.194;9.142;2024-01-06T02:15:13;7.03;;;4.90;;
79130;SDS011;72396;45.194;9.142;2024-01-06T02:17:38;7.55;;;5.00;;
79130;SDS011;72396;45.194;9.142;2024-01-06T02:20:05;7.05;;;4.45;;
79130;SDS011;72396;45.194;9.142;2024-01-06T02:22:31;8.27;;;4.78;;
79130;SDS011;72396;45.194;9.142;2024-01-06T02:24:57;7.38;;;5.22;;
79130;SDS011;72396;45.194;9.142;2024-01-06T02:27:23;8.15;;;5.07;;
79130;SDS011;72396;45.194;9.142;2024-01-06T02:29:48;8.68;;;5.30;;
79130;SDS011;72396;45.194;9.142;2024-01-06T02:32:13;9.48;;;5.22;;
79130;SDS011;72396;45.194;9.142;2024-01-06T02:34:39;7.40;;;4.95;;
79130;SDS011;72396;45.194;9.142;2024-01-06T02:37:04;7.55;;;5.00;;
79130;SDS011;72396;45.194;9.142;2024-01-06T02:39:29;8.27;;;5.32;;
79130;SDS011;72396;45.194;9.142;2024-01-06T02:41:55;7.72;;;4.72;;
79130;SDS011;72396;45.194;9.142;2024-01-06T02:44:20;9.55;;;5.53;;
79130;SDS011;72396;45.194;9.142;2024-01-06T02:46:45;7.22;;;4.90;;
79130;SDS011;72396;45.194;9.142;2024-01-06T02:49:11;8.43;;;5.43;;
79130;SDS011;72396;45.194;9.142;2024-01-06T02:51:36;8.27;;;5.07;;
79130;SDS011;72396;45.194;9.142;2024-01-06T02:54:01;8.20;;;5.05;;
79130;SDS011;72396;45.194;9.142;2024-01-06T02:56:27;7.97;;;5.00;;
79130;SDS011;72396;45.194;9.142;2024-01-06T02:58:52;8.30;;;5.68;;
79130;SDS011;72396;45.194;9.142;2024-01-06T03:01:17;7.88;;;5.53;;
79130;SDS011;72396;45.194;9.142;2024-01-06T03:03:43;7.90;;;5.15;;
79130;SDS011;72396;45.194;9.142;2024-01-06T03:06:08;6.60;;;5.00;;
79130;SDS011;72396;45.194;9.142;2024-01-06T03:08:33;6.57;;;4.70;;
79130;SDS011;72396;45.194;9.142;2024-01-06T03:10:59;8.43;;;5.45;;
79130;SDS011;72396;45.194;9.142;2024-01-06T03:13:25;7.35;;;4.93;;
79130;SDS011;72396;45.194;9.142;2024-01-06T03:15:50;9.07;;;5.15;;
79130;SDS011;72396;45.194;9.142;2024-01-06T03:18:16;7.72;;;4.93;;
79130;SDS011;72396;45.194;9.142;2024-01-06T03:20:41;8.20;;;5.47;;
79130;SDS011;72396;45.194;9.142;2024-01-06T03:23:06;8.75;;;5.25;;
79130;SDS011;72396;45.194;9.142;2024-01-06T03:25:32;8.23;;;5.60;;
79130;SDS011;72396;45.194;9.142;2024-01-06T03:27:57;7.65;;;5.40;;
79130;SDS011;72396;45.194;9.142;2024-01-06T03:30:22;7.32;;;4.90;;
79130;SDS011;72396;45.194;9.142;2024-01-06T03:32:48;7.57;;;5.20;;
79130;SDS011;72396;45.194;9.142;2024-01-06T03:35:13;7.03;;;5.40;;
79130;SDS011;72396;45.194;9.142;2024-01-06T03:37:38;8.02;;;4.90;;
79130;SDS011;72396;45.194;9.142;2024-01-06T03:40:04;8.88;;;5.85;;
79130;SDS011;72396;45.194;9.142;2024-01-06T03:42:30;6.78;;;4.63;;
79130;SDS011;72396;45.194;9.142;2024-01-06T03:44:55;7.78;;;4.97;;
79130;SDS011;72396;45.194;9.142;2024-01-06T03:47:21;7.93;;;5.10;;
79130;SDS011;72396;45.194;9.142;2024-01-06T03:49:46;8.65;;;5.53;;
79130;SDS011;72396;45.194;9.142;2024-01-06T03:52:12;8.63;;;5.57;;
79130;SDS011;72396;45.194;9.142;2024-01-06T03:54:38;8.55;;;5.35;;
79130;SDS011;72396;45.194;9.142;2024-01-06T03:57:04;7.68;;;5.07;;
79130;SDS011;72396;45.194;9.142;2024-01-06T03:59:29;7.85;;;5.20;;
79130;SDS011;72396;45.194;9.142;2024-01-06T04:01:54;7.80;;;5.28;;
79130;SDS011;72396;45.194;9.142;2024-01-06T04:04:20;7.35;;;4.90;;
79130;SDS011;72396;45.194;9.142;2024-01-06T04:06:45;6.95;;;4.72;;
79130;SDS011;72396;45.194;9.142;2024-01-06T04:09:10;9.55;;;5.07;;
79130;SDS011;72396;45.194;9.142;2024-01-06T04:11:36;8.02;;;5.05;;
79130;SDS011;72396;45.194;9.142;2024-01-06T04:14:01;7.70;;;4.95;;
79130;SDS011;72396;45.194;9.142;2024-01-06T04:16:27;8.15;;;4.97;;
79130;SDS011;72396;45.194;9.142;2024-01-06T04:18:53;7.82;;;4.93;;
79130;SDS011;72396;45.194;9.142;2024-01-06T04:21:18;9.15;;;5.63;;
79130;SDS011;72396;45.194;9.142;2024-01-06T04:23:43;8.95;;;5.45;;
79130;SDS011;72396;45.194;9.142;2024-01-06T04:26:08;7.10;;;4.78;;
79130;SDS011;72396;45.194;9.142;2024-01-06T04:28:34;8.15;;;5.03;;
79130;SDS011;72396;45.194;9.142;2024-01-06T04:30:59;9.50;;;5.55;;
79130;SDS011;72396;45.194;9.142;2024-01-06T04:33:25;8.38;;;5.45;;
79130;SDS011;72396;45.194;9.142;2024-01-06T04:35:50;9.32;;;5.93;;
79130;SDS011;72396;45.194;9.142;2024-01-06T04:38:15;10.13;;;5.65;;
79130;SDS011;72396;45.194;9.142;2024-01-06T04:40:41;9.35;;;5.65;;
79130;SDS011;72396;45.194;9.142;2024-01-06T04:43:06;8.52;;;5.72;;
79130;SDS011;72396;45.194;9.142;2024-01-06T04:45:32;8.88;;;5.25;;
79130;SDS011;72396;45.194;9.142;2024-01-06T04:47:57;7.43;;;5.35;;
79130;SDS011;72396;45.194;9.142;2024-01-06T04:50:23;8.90;;;5.60;;
79130;SDS011;72396;45.194;9.142;2024-01-06T04:52:48;8.40;;;5.03;;
79130;SDS011;72396;45.194;9.142;2024-01-06T04:55:13;9.48;;;5.57;;
79130;SDS011;72396;45.194;9.142;2024-01-06T04:57:39;9.57;;;5.10;;
79130;SDS011;72396;45.194;9.142;2024-01-06T05:00:04;7.75;;;5.10;;
79130;SDS011;72396;45.194;9.142;2024-01-06T05:02:30;9.18;;;5.80;;
79130;SDS011;72396;45.194;9.142;2024-01-06T05:04:56;8.73;;;5.25;;
79130;SDS011;72396;45.194;9.142;2024-01-06T05:07:21;7.53;;;5.70;;
79130;SDS011;72396;45.194;9.142;2024-01-06T05:09:46;8.25;;;5.80;;
79130;SDS011;72396;45.194;9.142;2024-01-06T05:12:12;9.43;;;4.97;;
79130;SDS011;72396;45.194;9.142;2024-01-06T05:14:37;8.02;;;4.97;;
79130;SDS011;72396;45.194;9.142;2024-01-06T05:17:02;8.82;;;4.63;;
79130;SDS011;72396;45.194;9.142;2024-01-06T05:19:28;9.05;;;5.45;;
79130;SDS011;72396;45.194;9.142;2024-01-06T05:21:53;9.40;;;5.45;;
79130;SDS011;72396;45.194;9.142;2024-01-06T05:24:19;7.70;;;5.47;;
79130;SDS011;72396;45.194;9.142;2024-01-06T05:26:45;7.13;;;4.80;;
79130;SDS011;72396;45.194;9.142;2024-01-06T05:29:10;8.35;;;4.90;;
79130;SDS011;72396;45.194;9.142;2024-01-06T05:31:35;8.25;;;5.32;;
79130;SDS011;72396;45.194;9.142;2024-01-06T05:34:01;9.30;;;5.88;;
79130;SDS011;72396;45.194;9.142;2024-01-06T05:36:26;7.97;;;5.55;;
79130;SDS011;72396;45.194;9.142;2024-01-06T05:38:51;8.02;;;5.53;;
79130;SDS011;72396;45.194;9.142;2024-01-06T05:41:16;8.90;;;5.63;;
79130;SDS011;72396;45.194;9.142;2024-01-06T05:43:42;7.65;;;5.38;;
79130;SDS011;72396;45.194;9.142;2024-01-06T05:46:07;9.20;;;5.35;;
79130;SDS011;72396;45.194;9.142;2024-01-06T05:48:33;7.75;;;5.00;;
79130;SDS011;72396;45.194;9.142;2024-01-06T05:50:58;9.60;;;5.32;;
79130;SDS011;72396;45.194;9.142;2024-01-06T05:53:24;9.73;;;6.13;;
79130;SDS011;72396;45.194;9.142;2024-01-06T05:55:49;8.25;;;5.40;;
79130;SDS011;72396;45.194;9.142;2024-01-06T05:58:15;8.55;;;5.25;;
79130;SDS011;72396;45.194;9.142;2024-01-06T06:00:41;8.57;;;5.05;;
79130;SDS011;72396;45.194;9.142;2024-01-06T06:03:06;8.38;;;5.03;;
79130;SDS011;72396;45.194;9.142;2024-01-06T06:05:32;9.02;;;5.07;;
79130;SDS011;72396;45.194;9.142;2024-01-06T06:07:58;8.77;;;5.05;;
79130;SDS011;72396;45.194;9.142;2024-01-06T06:10:23;11.63;;;5.78;;
79130;SDS011;72396;45.194;9.142;2024-01-06T06:15:20;8.27;;;5.20;;
79130;SDS011;72396;45.194;9.142;2024-01-06T06:17:45;9.38;;;5.68;;
79130;SDS011;72396;45.194;9.142;2024-01-06T06:20:11;10.18;;;5.82;;
79130;SDS011;72396;45.194;9.142;2024-01-06T06:22:36;8.32;;;5.53;;
79130;SDS011;72396;45.194;9.142;2024-01-06T06:25:02;8.45;;;5.63;;
79130;SDS011;72396;45.194;9.142;2024-01-06T06:27:28;11.43;;;6.28;;
79130;SDS011;72396;45.194;9.142;2024-01-06T06:29:54;9.90;;;5.68;;
79130;SDS011;72396;45.194;9.142;2024-01-06T06:32:21;9.65;;;5.60;;
79130;SDS011;72396;45.194;9.142;2024-01-06T06:34:51;9.60;;;5.95;;
79130;SDS011;72396;45.194;9.142;2024-01-06T06:37:17;10.35;;;6.00;;
79130;SDS011;72396;45.194;9.142;2024-01-06T06:39:43;11.40;;;5.80;;
79130;SDS011;72396;45.194;9.142;2024-01-06T06:42:09;9.30;;;5.57;;
79130;SDS011;72396;45.194;9.142;2024-01-06T06:44:35;10.35;;;5.97;;
79130;SDS011;72396;45.194;9.142;2024-01-06T06:47:00;10.75;;;5.82;;
79130;SDS011;72396;45.194;9.142;2024-01-06T06:49:26;9.25;;;5.47;;
79130;SDS011;72396;45.194;9.142;2024-01-06T06:51:51;10.10;;;5.90;;
79130;SDS011;72396;45.194;9.142;2024-01-06T06:54:16;10.45;;;5.68;;
79130;SDS011;72396;45.194;9.142;2024-01-06T06:56:42;9.82;;;5.82;;
79130;SDS011;72396;45.194;9.142;2024-01-06T06:59:08;11.13;;;6.15;;
79130;SDS011;72396;45.194;9.142;2024-01-06T07:01:33;9.02;;;5.18;;
79130;SDS011;72396;45.194;9.142;2024-01-06T07:04:00;9.70;;;5.82;;
79130;SDS011;72396;45.194;9.142;2024-01-06T07:06:26;10.38;;;5.63;;
79130;SDS011;72396;45.194;9.142;2024-01-06T07:08:51;11.18;;;6.00;;
79130;SDS011;72396;45.194;9.142;2024-01-06T07:11:16;10.13;;;5.13;;
79130;SDS011;72396;45.194;9.142;2024-01-06T07:13:43;10.25;;;5.50;;
79130;SDS011;72396;45.194;9.142;2024-01-06T07:16:09;9.10;;;5.55;;
79130;SDS011;72396;45.194;9.142;2024-01-06T07:18:34;9.40;;;5.53;;
79130;SDS011;72396;45.194;9.142;2024-01-06T07:21:00;10.27;;;5.80;;
79130;SDS011;72396;45.194;9.142;2024-01-06T07:23:25;9.43;;;5.65;;
79130;SDS011;72396;45.194;9.142;2024-01-06T07:25:50;12.02;;;5.65;;
79130;SDS011;72396;45.194;9.142;2024-01-06T07:28:16;9.80;;;5.40;;
79130;SDS011;72396;45.194;9.142;2024-01-06T07:30:41;10.73;;;5.65;;
79130;SDS011;72396;45.194;9.142;2024-01-06T07:33:07;11.52;;;5.82;;
79130;SDS011;72396;45.194;9.142;2024-01-06T07:35:32;9.98;;;5.68;;
79130;SDS011;72396;45.194;9.142;2024-01-06T07:37:58;12.20;;;6.25;;
79130;SDS011;72396;45.194;9.142;2024-01-06T07:40:23;9.27;;;5.78;;
79130;SDS011;72396;45.194;9.142;2024-01-06T07:42:50;9.10;;;5.60;;
79130;SDS011;72396;45.194;9.142;2024-01-06T07:45:16;11.52;;;6.22;;
79130;SDS011;72396;45.194;9.142;2024-01-06T07:47:42;9.63;;;5.85;;
79130;SDS011;72396;45.194;9.142;2024-01-06T07:50:07;8.43;;;5.18;;
79130;SDS011;72396;45.194;9.142;2024-01-06T07:52:34;10.23;;;6.07;;
79130;SDS011;72396;45.194;9.142;2024-01-06T07:54:59;9.07;;;5.47;;
79130;SDS011;72396;45.194;9.142;2024-01-06T07:57:24;11.52;;;5.70;;
79130;SDS011;72396;45.194;9.142;2024-01-06T07:59:50;10.77;;;5.95;;
79130;SDS011;72396;45.194;9.142;2024-01-06T08:02:15;9.07;;;5.65;;
79130;SDS011;72396;45.194;9.142;2024-01-06T08:04:41;11.82;;;6.07;;
79130;SDS011;72396;45.194;9.142;2024-01-06T08:07:06;11.52;;;6.45;;
79130;SDS011;72396;45.194;9.142;2024-01-06T08:09:31;10.23;;;6.22;;
79130;SDS011;72396;45.194;9.142;2024-01-06T08:11:57;11.02;;;5.97;;
79130;SDS011;72396;45.194;9.142;2024-01-06T08:14:22;10.98;;;5.90;;
79130;SDS011;72396;45.194;9.142;2024-01-06T08:16:48;8.65;;;5.53;;
79130;SDS011;72396;45.194;9.142;2024-01-06T08:19:13;10.75;;;6.13;;
79130;SDS011;72396;45.194;9.142;2024-01-06T08:21:38;10.43;;;6.05;;
79130;SDS011;72396;45.194;9.142;2024-01-06T08:24:04;10.73;;;6.25;;
79130;SDS011;72396;45.194;9.142;2024-01-06T08:26:29;12.20;;;5.78;;
79130;SDS011;72396;45.194;9.142;2024-01-06T08:28:56;9.40;;;5.40;;
79130;SDS011;72396;45.194;9.142;2024-01-06T08:31:21;10.82;;;6.22;;
79130;SDS011;72396;45.194;9.142;2024-01-06T08:33:48;9.77;;;5.47;;
79130;SDS011;72396;45.194;9.142;2024-01-06T08:36:13;11.70;;;5.47;;
79130;SDS011;72396;45.194;9.142;2024-01-06T08:38:38;9.25;;;5.28;;
79130;SDS011;72396;45.194;9.142;2024-01-06T08:41:04;8.48;;;4.93;;
79130;SDS011;72396;45.194;9.142;2024-01-06T08:43:29;8.10;;;4.95;;
79130;SDS011;72396;45.194;9.142;2024-01-06T08:45:54;8.75;;;5.00;;
79130;SDS011;72396;45.194;9.142;2024-01-06T08:48:20;10.15;;;5.60;;
79130;SDS011;72396;45.194;9.142;2024-01-06T08:50:46;10.65;;;5.47;;
79130;SDS011;72396;45.194;9.142;2024-01-06T08:53:11;9.23;;;4.88;;
79130;SDS011;72396;45.194;9.142;2024-01-06T08:55:37;9.00;;;5.60;;
79130;SDS011;72396;45.194;9.142;2024-01-06T08:58:02;9.90;;;5.38;;
79130;SDS011;72396;45.194;9.142;2024-01-06T09:00:28;9.27;;;5.68;;
79130;SDS011;72396;45.194;9.142;2024-01-06T09:02:53;8.63;;;5.05;;
79130;SDS011;72396;45.194;9.142;2024-01-06T09:05:18;8.73;;;5.35;;
79130;SDS011;72396;45.194;9.142;2024-01-06T09:07:44;9.27;;;5.32;;
79130;SDS011;72396;45.194;9.142;2024-01-06T09:10:14;9.80;;;5.53;;
79130;SDS011;72396;45.194;9.142;2024-01-06T09:12:39;9.43;;;5.18;;
79130;SDS011;72396;45.194;9.142;2024-01-06T09:15:04;10.20;;;5.47;;
79130;SDS011;72396;45.194;9.142;2024-01-06T09:17:30;9.85;;;5.30;;
79130;SDS011;72396;45.194;9.142;2024-01-06T09:19:56;8.32;;;4.93;;
79130;SDS011;72396;45.194;9.142;2024-01-06T09:22:21;9.40;;;5.20;;
79130;SDS011;72396;45.194;9.142;2024-01-06T09:24:48;8.23;;;4.88;;
79130;SDS011;72396;45.194;9.142;2024-01-06T09:27:14;8.70;;;5.35;;
79130;SDS011;72396;45.194;9.142;2024-01-06T09:29:40;10.00;;;5.30;;
79130;SDS011;72396;45.194;9.142;2024-01-06T09:32:06;9.45;;;5.32;;
79130;SDS011;72396;45.194;9.142;2024-01-06T09:34:31;8.75;;;5.22;;
79130;SDS011;72396;45.194;9.142;2024-01-06T09:36:57;9.50;;;5.03;;
79130;SDS011;72396;45.194;9.142;2024-01-06T09:39:22;7.50;;;4.22;;
79130;SDS011;72396;45.194;9.142;2024-01-06T09:41:47;10.50;;;4.50;;
79130;SDS011;72396;45.194;9.142;2024-01-06T09:44:13;8.43;;;4.85;;
79130;SDS011;72396;45.194;9.142;2024-01-06T09:46:38;8.02;;;4.40;;
79130;SDS011;72396;45.194;9.142;2024-01-06T09:49:05;14.68;;;4.53;;
79130;SDS011;72396;45.194;9.142;2024-01-06T09:51:31;8.07;;;4.63;;
79130;SDS011;72396;45.194;9.142;2024-01-06T09:54:00;8.93;;;4.45;;
79130;SDS011;72396;45.194;9.142;2024-01-06T09:56:28;8.55;;;4.80;;
79130;SDS011;72396;45.194;9.142;2024-01-06T09:58:54;8.32;;;4.45;;
79130;SDS011;72396;45.194;9.142;2024-01-06T10:01:20;8.30;;;4.28;;
79130;SDS011;72396;45.194;9.142;2024-01-06T10:03:46;7.72;;;4.40;;
79130;SDS011;72396;45.194;9.142;2024-01-06T10:06:15;8.43;;;4.90;;
79130;SDS011;72396;45.194;9.142;2024-01-06T10:08:44;8.88;;;4.97;;
79130;SDS011;72396;45.194;9.142;2024-01-06T10:11:13;9.07;;;4.75;;
79130;SDS011;72396;45.194;9.142;2024-01-06T10:13:38;7.78;;;4.38;;
79130;SDS011;72396;45.194;9.142;2024-01-06T10:16:04;7.13;;;4.25;;
79130;SDS011;72396;45.194;9.142;2024-01-06T10:18:30;7.55;;;4.00;;
79130;SDS011;72396;45.194;9.142;2024-01-06T10:20:56;7.07;;;4.22;;
79130;SDS011;72396;45.194;9.142;2024-01-06T10:23:31;5.95;;;4.07;;
79130;SDS011;72396;45.194;9.142;2024-01-06T10:25:58;7.20;;;4.10;;
79130;SDS011;72396;45.194;9.142;2024-01-06T10:28:24;7.43;;;4.32;;
79130;SDS011;72396;45.194;9.142;2024-01-06T10:30:51;8.68;;;4.20;;
79130;SDS011;72396;45.194;9.142;2024-01-06T10:33:17;7.68;;;4.20;;
79130;SDS011;72396;45.194;9.142;2024-01-06T10:35:43;8.27;;;4.57;;
79130;SDS011;72396;45.194;9.142;2024-01-06T10:38:11;6.55;;;3.95;;
79130;SDS011;72396;45.194;9.142;2024-01-06T10:40:36;6.35;;;4.25;;
79130;SDS011;72396;45.194;9.142;2024-01-06T10:43:01;7.07;;;4.38;;
79130;SDS011;72396;45.194;9.142;2024-01-06T10:45:28;7.68;;;4.03;;
79130;SDS011;72396;45.194;9.142;2024-01-06T10:47:57;7.20;;;3.92;;
79130;SDS011;72396;45.194;9.142;2024-01-06T10:50:24;7.32;;;4.13;;
79130;SDS011;72396;45.194;9.142;2024-01-06T10:52:51;7.55;;;4.30;;
79130;SDS011;72396;45.194;9.142;2024-01-06T10:55:17;8.23;;;4.07;;
79130;SDS011;72396;45.194;9.142;2024-01-06T10:57:45;7.70;;;4.25;;
79130;SDS011;72396;45.194;9.142;2024-01-06T11:00:11;6.88;;;4.05;;
79130;SDS011;72396;45.194;9.142;2024-01-06T11:02:38;7.38;;;4.43;;
79130;SDS011;72396;45.194;9.142;2024-01-06T11:05:04;7.10;;;3.88;;
79130;SDS011;72396;45.194;9.142;2024-01-06T11:07:32;6.65;;;4.22;;
79130;SDS011;72396;45.194;9.142;2024-01-06T11:10:06;6.93;;;3.85;;
79130;SDS011;72396;45.194;9.142;2024-01-06T11:12:36;6.90;;;3.70;;
79130;SDS011;72396;45.194;9.142;2024-01-06T11:15:01;7.97;;;4.30;;
79130;SDS011;72396;45.194;9.142;2024-01-06T11:20:18;7.13;;;3.63;;
79130;SDS011;72396;45.194;9.142;2024-01-06T11:22:45;6.13;;;3.70;;
79130;SDS011;72396;45.194;9.142;2024-01-06T11:25:14;7.22;;;4.10;;
79130;SDS011;72396;45.194;9.142;2024-01-06T11:27:42;7.35;;;4.40;;
79130;SDS011;72396;45.194;9.142;2024-01-06T11:30:12;7.03;;;3.80;;
79130;SDS011;72396;45.194;9.142;2024-01-06T11:32:44;7.47;;;4.22;;
79130;SDS011;72396;45.194;9.142;2024-01-06T11:35:12;8.10;;;4.53;;
79130;SDS011;72396;45.194;9.142;2024-01-06T11:40:22;6.75;;;3.72;;
79130;SDS011;72396;45.194;9.142;2024-01-06T11:42:56;6.78;;;4.05;;
79130;SDS011;72396;45.194;9.142;2024-01-06T11:45:30;6.30;;;4.28;;
79130;SDS011;72396;45.194;9.142;2024-01-06T11:47:58;6.50;;;4.10;;
79130;SDS011;72396;45.194;9.142;2024-01-06T11:50:26;7.70;;;4.45;;
79130;SDS011;72396;45.194;9.142;2024-01-06T11:52:52;7.72;;;4.07;;
79130;SDS011;72396;45.194;9.142;2024-01-06T11:55:18;6.75;;;4.38;;
79130;SDS011;72396;45.194;9.142;2024-01-06T11:57:44;6.88;;;4.28;;
79130;SDS011;72396;45.194;9.142;2024-01-06T12:00:10;8.30;;;4.28;;
79130;SDS011;72396;45.194;9.142;2024-01-06T12:02:37;7.72;;;3.90;;
79130;SDS011;72396;45.194;9.142;2024-01-06T12:05:02;6.10;;;3.28;;
79130;SDS011;72396;45.194;9.142;2024-01-06T12:07:28;7.00;;;4.07;;
79130;SDS011;72396;45.194;9.142;2024-01-06T12:10:02;7.85;;;4.00;;
79130;SDS011;72396;45.194;9.142;2024-01-06T12:12:28;6.05;;;3.83;;
79130;SDS011;72396;45.194;9.142;2024-01-06T12:14:53;8.27;;;4.32;;
79130;SDS011;72396;45.194;9.142;2024-01-06T12:17:20;8.40;;;3.92;;
79130;SDS011;72396;45.194;9.142;2024-01-06T12:19:46;6.85;;;3.92;;
79130;SDS011;72396;45.194;9.142;2024-01-06T12:22:13;7.95;;;4.32;;
79130;SDS011;72396;45.194;9.142;2024-01-06T12:24:39;6.13;;;3.72;;
79130;SDS011;72396;45.194;9.142;2024-01-06T12:27:09;6.47;;;3.80;;
79130;SDS011;72396;45.194;9.142;2024-01-06T12:29:38;6.45;;;3.63;;
79130;SDS011;72396;45.194;9.142;2024-01-06T12:32:05;6.97;;;3.78;;
79130;SDS011;72396;45.194;9.142;2024-01-06T12:34:30;7.25;;;3.70;;
79130;SDS011;72396;45.194;9.142;2024-01-06T12:36:56;7.10;;;4.07;;
79130;SDS011;72396;45.194;9.142;2024-01-06T12:39:21;6.50;;;3.55;;
79130;SDS011;72396;45.194;9.142;2024-01-06T12:41:48;6.40;;;3.85;;
79130;SDS011;72396;45.194;9.142;2024-01-06T12:44:15;6.70;;;3.85;;
79130;SDS011;72396;45.194;9.142;2024-01-06T12:46:40;6.30;;;4.05;;
79130;SDS011;72396;45.194;9.142;2024-01-06T12:49:05;7.25;;;4.00;;
79130;SDS011;72396;45.194;9.142;2024-01-06T12:51:32;6.85;;;3.80;;
79130;SDS011;72396;45.194;9.142;2024-01-06T12:53:57;7.07;;;4.45;;
79130;SDS011;72396;45.194;9.142;2024-01-06T12:56:23;6.55;;;3.83;;
79130;SDS011;72396;45.194;9.142;2024-01-06T12:58:48;6.88;;;3.78;;
79130;SDS011;72396;45.194;9.142;2024-01-06T13:01:14;6.53;;;4.00;;
79130;SDS011;72396;45.194;9.142;2024-01-06T13:03:39;6.55;;;4.22;;
79130;SDS011;72396;45.194;9.142;2024-01-06T13:06:04;6.38;;;3.58;;
79130;SDS011;72396;45.194;9.142;2024-01-06T13:08:30;6.78;;;3.80;;
79130;SDS011;72396;45.194;9.142;2024-01-06T13:10:56;7.47;;;3.63;;
79130;SDS011;72396;45.194;9.142;2024-01-06T13:13:21;6.63;;;3.90;;
79130;SDS011;72396;45.194;9.142;2024-01-06T13:15:47;6.00;;;3.50;;
79130;SDS011;72396;45.194;9.142;2024-01-06T13:18:12;8.48;;;4.00;;
79130;SDS011;72396;45.194;9.142;2024-01-06T13:20:38;7.43;;;4.22;;
79130;SDS011;72396;45.194;9.142;2024-01-06T13:23:06;9.05;;;4.00;;
79130;SDS011;72396;45.194;9.142;2024-01-06T13:25:32;5.28;;;3.33;;
79130;SDS011;72396;45.194;9.142;2024-01-06T13:27:57;6.22;;;3.55;;
79130;SDS011;72396;45.194;9.142;2024-01-06T13:30:23;7.05;;;3.78;;
79130;SDS011;72396;45.194;9.142;2024-01-06T13:32:50;6.18;;;3.83;;
79130;SDS011;72396;45.194;9.142;2024-01-06T13:35:15;5.38;;;3.35;;
79130;SDS011;72396;45.194;9.142;2024-01-06T13:37:41;6.82;;;3.80;;
79130;SDS011;72396;45.194;9.142;2024-01-06T13:40:08;6.18;;;3.50;;
79130;SDS011;72396;45.194;9.142;2024-01-06T13:42:34;6.70;;;3.97;;
79130;SDS011;72396;45.194;9.142;2024-01-06T13:45:00;7.53;;;4.13;;
79130;SDS011;72396;45.194;9.142;2024-01-06T13:47:28;6.70;;;3.92;;
79130;SDS011;72396;45.194;9.142;2024-01-06T13:49:55;6.15;;;3.65;;
79130;SDS011;72396;45.194;9.142;2024-01-06T13:52:21;6.55;;;4.07;;
79130;SDS011;72396;45.194;9.142;2024-01-06T13:54:47;5.93;;;3.90;;
79130;SDS011;72396;45.194;9.142;2024-01-06T13:57:13;6.63;;;3.90;;
79130;SDS011;72396;45.194;9.142;2024-01-06T13:59:38;7.25;;;3.72;;
79130;SDS011;72396;45.194;9.142;2024-01-06T14:02:07;6.35;;;4.10;;
79130;SDS011;72396;45.194;9.142;2024-01-06T14:04:33;7.45;;;3.85;;
79130;SDS011;72396;45.194;9.142;2024-01-06T14:06:59;7.95;;;4.47;;
79130;SDS011;72396;45.194;9.142;2024-01-06T14:09:26;7.32;;;4.30;;
79130;SDS011;72396;45.194;9.142;2024-01-06T14:11:52;6.72;;;4.13;;
79130;SDS011;72396;45.194;9.142;2024-01-06T14:14:19;5.90;;;4.20;;
79130;SDS011;72396;45.194;9.142;2024-01-06T14:16:45;7.50;;;3.90;;
79130;SDS011;72396;45.194;9.142;2024-01-06T14:19:11;6.78;;;4.10;;
79130;SDS011;72396;45.194;9.142;2024-01-06T14:21:37;7.07;;;3.70;;
79130;SDS011;72396;45.194;9.142;2024-01-06T14:24:03;10.27;;;4.32;;
79130;SDS011;72396;45.194;9.142;2024-01-06T14:26:30;5.95;;;3.80;;
79130;SDS011;72396;45.194;9.142;2024-01-06T14:28:56;8.02;;;4.18;;
79130;SDS011;72396;45.194;9.142;2024-01-06T14:31:23;6.22;;;3.88;;
79130;SDS011;72396;45.194;9.142;2024-01-06T14:33:49;6.93;;;3.58;;
79130;SDS011;72396;45.194;9.142;2024-01-06T14:36:14;7.50;;;4.40;;
79130;SDS011;72396;45.194;9.142;2024-01-06T14:38:40;5.90;;;4.00;;
79130;SDS011;72396;45.194;9.142;2024-01-06T14:41:05;6.35;;;3.75;;
79130;SDS011;72396;45.194;9.142;2024-01-06T14:43:30;6.30;;;3.85;;
79130;SDS011;72396;45.194;9.142;2024-01-06T14:45:56;5.68;;;3.47;;